• Join FlightAware (Why Join?)
  • Login
  • US Flag 
06:43PM EDT


 

Airport Tracker/Info


-or-


 

Live Flight TrackerFlight Track Log ✈ N93XP ✈ 08-Jul-2013 ✈ KCMI - KUOX

Flight Track Log - Related Links

Times and Time Zones

All times are in EDT time to prevent confusion due to time zone crossing. See the N93XP flight status page for this flight to view local times or setup timezone preferences in your user account.

Time Position Orientation Groundspeed Altitude Reporting Facility
EDT Latitude Longitude Course Direction KTS MPH feet Rate Location/Type
10:06AM 39.9103 -88.3269 193° South 235 270 5,900  Level Chicago Center
10:07AM 39.8411 -88.3503 195° South 253 291 8,300 2,220 Climbing Chicago Center
10:08AM 39.7686 -88.3744 194° South 268 308 10,500 2,040 Climbing Chicago Center
10:09AM 39.6914 -88.3997 194° South 283 326 12,600 1,860 Climbing Chicago Center
10:10AM 39.3943 -88.4797 194° South  Level FlightAware Approximate
10:10AM 39.6111 -88.4264 194° South 292 336 14,400  Level Chicago Center
10:11AM 39.5322 -88.4519 194° South 292 336 16,000 1,560 Climbing Chicago Center
10:12AM 39.4328 -88.4836 194° South 301 346 17,700 1,560 Climbing Chicago Center
10:13AM 39.3531 -88.5086 194° South 297 342 19,200 1,500 Climbing Chicago Center
10:14AM 39.2481 -88.5422 194° South 299 344 21,200 1,500 Climbing Kansas City Center
10:15AM 39.1678 -88.5683 194° South 297 342 22,700 840 Climbing Kansas City Center
10:16AM 39.0875 -88.5933 194° South 296 341 23,000 600 Climbing Kansas City Center
10:17AM 38.9931 -88.6236 194° South 326 375 24,000 960 Climbing Kansas City Center
10:18AM 38.9028 -88.6728 203° Southwest 347 399 25,000 960 Climbing Kansas City Center
10:19AM 38.8222 -88.7417 214° Southwest 347 399 26,000 960 Climbing Kansas City Center
10:20AM 38.7414 -88.8103 214° Southwest 349 402 27,100 960 Climbing Kansas City Center
10:21AM 38.6575 -88.8817 214° Southwest 354 407 28,100 1,020 Climbing Kansas City Center
10:22AM 38.5564 -88.9678 214° Southwest 363 418 29,300 900 Climbing Kansas City Center
10:23AM 38.4644 -89.0444 213° Southwest 365 420 30,000 300 Climbing Kansas City Center
10:24AM 38.3731 -89.1206 213° Southwest 386 444 30,000  Level Kansas City Center
10:25AM 38.2758 -89.2022 213° Southwest 411 473 30,000  Level Kansas City Center
10:27AM 38.1678 -89.2931 213° Southwest 427 491 30,000  Level Kansas City Center
10:28AM 38.0650 -89.3783 213° Southwest 437 503 30,000  Level Kansas City Center
10:29AM 37.9525 -89.4694 213° Southwest 444 511 30,000  Level Kansas City Center
10:30AM 37.8303 -89.4967 190° South 456 525 30,000  Level Kansas City Center
10:31AM 37.7067 -89.4947 179° South 448 516 30,000  Level Kansas City Center
10:32AM 37.5794 -89.4958 180° South 456 525 30,000  Level Kansas City Center
10:33AM 37.4453 -89.5061 183° South 452 520 30,000  Level Kansas City Center
10:34AM 37.3167 -89.5028 179° South 465 535 30,000  Level Kansas City Center
10:35AM 37.1883 -89.5086 182° South 463 533 30,000  Level Kansas City Center
10:36AM 37.0603 -89.5094 180° South 455 524 30,000  Level Kansas City Center
10:37AM 36.9072 -89.5111 180° South 453 521 30,000  Level Kansas City Center
10:38AM 36.7808 -89.5136 181° South 454 522 30,000  Level Kansas City Center
10:39AM 36.6581 -89.5136 180° South 458 527 30,000  Level Kansas City Center
10:40AM 36.5308 -89.5139 180° South 457 526 30,000  Level Kansas City Center
10:41AM 36.4050 -89.5122 179° South 455 524 30,000  Level Kansas City Center
10:42AM 36.2433 -89.5231 183° South 467 537 30,000  Level Memphis Center
10:43AM 36.1183 -89.5194 179° South 467 537 30,000  Level Memphis Center
10:44AM 35.9889 -89.5206 180° South 457 526 30,000  Level Memphis Center
10:45AM 35.8639 -89.5219 181° South 457 526 30,000 -300 Level Memphis Center
10:46AM 35.7367 -89.5233 181° South 457 526 29,400 -1,020 Descending Memphis Center
10:47AM 35.6136 -89.5219 179° South 450 518 28,000 -1,500 Descending Memphis Center
10:48AM 35.4842 -89.5233 181° South 457 526 26,500 -1,500 Descending Memphis Center
10:49AM 35.3569 -89.5244 180° South 457 526 25,000 -2,040 Descending Memphis Center
10:50AM 35.2214 -89.5258 180° South 457 526 22,500 -2,700 Descending Memphis Center
10:51AM 35.1067 -89.5269 180° South 432 497 19,600 -2,700 Descending Memphis Center
10:52AM 34.9983 -89.5281 180° South 405 466 17,100 -2,220 Descending Memphis Center
10:53AM 34.8961 -89.5292 181° South 380 437 15,200 -2,160 Descending Memphis Center
10:54AM 34.8022 -89.5300 180° South 366 421 12,800 -2,220 Descending Memphis Center
10:55AM 34.7294 -89.5611 199° South 338 389 10,800 -2,220 Descending Memphis Center
10:56AM 34.6736 -89.6400 229° Southwest 304 350 8,400 -2,400 Descending Memphis Center
10:57AM 34.6239 -89.7111 230° Southwest 289 333 6,100 -2,220 Descending Memphis Center
10:58AM 34.5742 -89.7794 229° Southwest 284 327 4,000 -1,080 Descending Memphis Center
10:59AM 34.5264 -89.8506 231° Southwest 267 307 4,000  Level Memphis Center
11:00AM 34.4617 -89.8633 189° South 225 259 4,000  Level Memphis Center
11:01AM 34.3972 -89.8764 189° South 230 265 4,000 -420 Level Memphis Center
11:02AM 34.3781 -89.8161 111° Southeast 156 180 3,200 -780 Descending Memphis Center
11:03AM 34.3861 -89.7456 82° East 192 221 2,500 -600 Descending Memphis Center
11:04AM 34.3858 -89.6800 90° East 192 221 2,100 -300 Descending Memphis Center
11:05AM 34.3833 -89.6197 93° East 192 221 1,900 -600 Descending Memphis Center
11:06AM 34.3850 -89.5694 88° East 166 191 1,000 -480 Descending Memphis Center
11:07AM 34.3828 -89.5142 93° East 166 191 1,000 1,980 Level Memphis Center
11:08AM 34.3822 -89.4561 91° East 166 191 5,000 1,980 Climbing Memphis Center
11:09AM 34.3819 -89.4008 90° East 166 191 5,000  Level Memphis Center
11:10AM 34.3814 -89.3431 91° East 166 191 5,000  Level Memphis Center
11:11AM 34.3814 -89.3431 107° East 166 191 5,000  Level Memphis Center
11:13AM 34.3814 -89.3431 107° East 166 191 5,000  Level Memphis Center
11:14AM 34.3814 -89.3431 107° East 166 191 5,000  Level Memphis Center
11:16AM 34.3814 -89.3431 107° East 166 191 5,000  Level Memphis Center
11:18AM 34.3814 -89.3431 107° East 166 191 5,000  Level Memphis Center
11:20AM 34.3814 -89.3431 107° East 166 191 5,000  Level Memphis Center